createdAt,value
2022-09-27T00:02:10.604Z,7.97
2022-09-27T00:04:38.882Z,8.00
2022-09-27T00:07:07.447Z,8.17
2022-09-27T00:09:36.218Z,7.83
2022-09-27T00:12:04.594Z,7.83
2022-09-27T00:14:32.823Z,8.20
2022-09-27T00:17:01.068Z,8.13
2022-09-27T00:19:30.824Z,7.80
2022-09-27T00:21:59.014Z,7.30
2022-09-27T00:24:27.284Z,8.07
2022-09-27T00:26:55.505Z,7.40
2022-09-27T00:29:23.753Z,7.90
2022-09-27T00:31:51.968Z,7.37
2022-09-27T00:34:22.067Z,8.40
2022-09-27T00:36:52.143Z,7.47
2022-09-27T00:39:20.546Z,7.70
2022-09-27T00:41:48.718Z,8.40
2022-09-27T00:44:59.532Z,9.20
2022-09-27T00:47:34.137Z,8.03
2022-09-27T00:50:07.244Z,8.60
2022-09-27T00:52:44.471Z,7.90
2022-09-27T00:55:17.387Z,8.43
2022-09-27T00:57:47.379Z,7.40
2022-09-27T01:00:17.191Z,7.73
2022-09-27T01:02:49.500Z,7.57
2022-09-27T01:05:21.166Z,7.37
2022-09-27T01:07:50.733Z,7.57
2022-09-27T01:10:20.405Z,8.60
2022-09-27T01:13:00.686Z,8.23
2022-09-27T01:15:37.010Z,7.93
2022-09-27T01:18:31.198Z,7.90
2022-09-27T01:21:27.578Z,7.50
2022-09-27T01:24:37.631Z,7.40
2022-09-27T01:27:40.793Z,7.70
2022-09-27T01:30:22.583Z,7.60
2022-09-27T01:32:57.175Z,7.97
2022-09-27T01:35:32.234Z,8.30
2022-09-27T01:38:09.903Z,8.50
2022-09-27T01:40:44.758Z,7.70
2022-09-27T01:43:18.128Z,8.20
2022-09-27T01:45:54.654Z,8.60
2022-09-27T01:48:24.723Z,7.90
2022-09-27T01:50:58.530Z,8.03
2022-09-27T01:53:33.213Z,8.30
2022-09-27T01:56:06.254Z,8.00
2022-09-27T01:58:40.993Z,8.50
2022-09-27T02:01:12.547Z,7.67
2022-09-27T02:03:44.792Z,7.83
2022-09-27T02:06:17.526Z,7.77
2022-09-27T02:08:52.405Z,7.73
2022-09-27T02:11:20.814Z,7.10
2022-09-27T02:13:54.965Z,8.10
2022-09-27T02:16:34.541Z,8.00
2022-09-27T02:19:11.697Z,7.57
2022-09-27T02:21:45.978Z,7.00
2022-09-27T02:24:21.031Z,8.17
2022-09-27T02:26:55.803Z,8.10
2022-09-27T02:29:29.387Z,8.50
2022-09-27T02:31:59.028Z,7.47
2022-09-27T02:34:31.597Z,7.60
2022-09-27T02:37:01.094Z,7.77
2022-09-27T02:39:30.000Z,7.97
2022-09-27T02:42:00.190Z,8.67
2022-09-27T02:44:30.438Z,7.23
2022-09-27T02:47:14.597Z,7.57
2022-09-27T02:49:56.585Z,7.57
2022-09-27T02:52:34.401Z,7.60
2022-09-27T02:55:13.190Z,7.47
2022-09-27T02:57:54.675Z,7.20
2022-09-27T03:00:26.411Z,8.80
2022-09-27T03:03:04.267Z,8.10
2022-09-27T03:05:38.012Z,7.03
2022-09-27T03:08:07.541Z,7.50
2022-09-27T03:10:35.878Z,7.63
2022-09-27T03:13:05.059Z,7.03
2022-09-27T03:15:33.221Z,7.20
2022-09-27T03:18:02.846Z,8.07
2022-09-27T03:20:31.604Z,7.77
2022-09-27T03:22:59.871Z,8.43
2022-09-27T03:25:28.132Z,7.57
2022-09-27T03:27:56.381Z,7.57
2022-09-27T03:30:24.508Z,6.87
2022-09-27T03:32:52.768Z,7.73
2022-09-27T03:35:22.728Z,7.97
2022-09-27T03:37:50.910Z,8.13
2022-09-27T03:40:19.263Z,8.87
2022-09-27T03:42:50.020Z,7.57
2022-09-27T03:45:18.892Z,7.50
2022-09-27T03:47:47.199Z,7.77
2022-09-27T03:50:15.998Z,8.67
2022-09-27T03:52:45.801Z,10.27
2022-09-27T03:55:14.499Z,9.53
2022-09-27T03:57:46.577Z,9.80
2022-09-27T04:00:15.840Z,10.50
2022-09-27T04:02:44.509Z,9.80
2022-09-27T04:05:13.838Z,10.00
2022-09-27T04:07:42.045Z,10.60
2022-09-27T04:10:11.788Z,10.60
2022-09-27T04:12:41.827Z,10.37
2022-09-27T04:15:11.371Z,10.97
2022-09-27T04:17:42.015Z,11.50
2022-09-27T04:20:10.931Z,10.20
2022-09-27T04:22:41.472Z,9.77
2022-09-27T04:25:11.847Z,11.60
2022-09-27T04:27:40.069Z,9.60
2022-09-27T04:30:09.746Z,9.13
2022-09-27T04:32:42.660Z,9.23
2022-09-27T04:35:28.538Z,9.40
2022-09-27T04:37:57.647Z,8.77
2022-09-27T04:40:27.660Z,9.50
2022-09-27T04:42:58.034Z,8.13
2022-09-27T04:45:26.333Z,9.33
2022-09-27T04:47:54.513Z,10.50
2022-09-27T04:50:22.808Z,9.13
2022-09-27T04:52:53.018Z,8.97
2022-09-27T04:55:22.072Z,9.00
2022-09-27T04:57:51.907Z,8.83
2022-09-27T05:00:20.274Z,8.10
2022-09-27T05:02:48.882Z,8.97
2022-09-27T05:05:17.616Z,9.50
2022-09-27T05:07:45.734Z,8.37
2022-09-27T05:10:13.900Z,8.47
2022-09-27T05:12:42.366Z,8.27
2022-09-27T05:15:12.776Z,8.90
2022-09-27T05:17:40.878Z,8.93
2022-09-27T05:20:10.851Z,8.50
2022-09-27T05:22:40.763Z,8.27
2022-09-27T05:25:09.853Z,9.00
2022-09-27T05:27:38.170Z,8.90
2022-09-27T05:30:08.180Z,10.03
2022-09-27T05:32:41.811Z,12.67
2022-09-27T05:35:10.602Z,12.13
2022-09-27T05:37:40.263Z,12.47
2022-09-27T05:40:29.317Z,11.83
2022-09-27T05:42:58.135Z,11.43
2022-09-27T05:45:27.018Z,9.00
2022-09-27T05:47:58.374Z,8.90
2022-09-27T05:50:28.278Z,10.60
2022-09-27T05:52:56.410Z,7.90
2022-09-27T05:55:24.672Z,8.73
2022-09-27T05:57:57.629Z,8.57
2022-09-27T06:00:26.144Z,7.80
2022-09-27T06:03:00.087Z,8.30
2022-09-27T06:05:31.068Z,8.30
2022-09-27T06:08:03.737Z,7.93
2022-09-27T06:10:32.795Z,8.60
2022-09-27T06:13:02.517Z,7.77
2022-09-27T06:15:31.636Z,7.63
2022-09-27T06:18:05.652Z,7.93
2022-09-27T06:20:35.203Z,8.17
2022-09-27T06:23:07.837Z,8.13
2022-09-27T06:25:36.217Z,7.50
2022-09-27T06:28:05.009Z,7.23
2022-09-27T06:30:33.710Z,6.63
2022-09-27T06:33:04.215Z,6.30
2022-09-27T06:35:33.043Z,7.33
2022-09-27T06:38:05.524Z,6.73
2022-09-27T06:40:33.847Z,6.80
2022-09-27T06:43:06.243Z,6.37
2022-09-27T06:45:36.796Z,7.47
2022-09-27T06:48:08.147Z,6.63
2022-09-27T06:50:38.107Z,6.93
2022-09-27T06:53:08.430Z,6.53
2022-09-27T06:55:36.691Z,7.17
2022-09-27T06:58:23.103Z,6.37
2022-09-27T07:00:53.485Z,6.60
2022-09-27T07:03:28.426Z,7.43
2022-09-27T07:06:01.220Z,7.57
2022-09-27T07:08:30.191Z,6.77
2022-09-27T07:11:03.698Z,8.00
2022-09-27T07:13:34.748Z,7.77
2022-09-27T07:16:03.326Z,7.70
2022-09-27T07:18:33.076Z,7.70
2022-09-27T07:21:01.808Z,7.13
2022-09-27T07:23:31.235Z,6.77
2022-09-27T07:26:04.398Z,6.53
2022-09-27T07:28:32.580Z,6.47
2022-09-27T07:31:00.743Z,7.53
2022-09-27T07:33:28.928Z,7.57
2022-09-27T07:35:58.707Z,7.43
2022-09-27T07:38:26.888Z,7.23
2022-09-27T07:40:55.030Z,6.70
2022-09-27T07:43:23.771Z,7.10
2022-09-27T07:45:52.065Z,7.43
2022-09-27T07:48:20.272Z,7.00
2022-09-27T07:50:48.388Z,7.07
2022-09-27T07:53:18.477Z,8.40
2022-09-27T07:55:52.061Z,7.40
2022-09-27T07:58:20.767Z,7.30
2022-09-27T08:00:49.000Z,6.77
2022-09-27T08:03:18.683Z,6.47
2022-09-27T08:05:48.363Z,6.57
2022-09-27T08:08:19.004Z,7.20
2022-09-27T08:10:47.276Z,6.77
2022-09-27T08:13:20.401Z,7.40
2022-09-27T08:15:52.615Z,6.53
2022-09-27T08:18:22.147Z,6.87
2022-09-27T08:20:50.353Z,6.47
2022-09-27T08:23:20.022Z,6.30
2022-09-27T08:25:54.273Z,6.53
2022-09-27T08:28:22.831Z,6.43
2022-09-27T08:30:51.955Z,7.40
2022-09-27T08:33:20.361Z,6.30
2022-09-27T08:35:48.542Z,6.30
2022-09-27T08:38:16.642Z,7.27
2022-09-27T08:40:54.800Z,6.33
2022-09-27T08:43:33.265Z,6.70
2022-09-27T08:46:12.697Z,6.13
2022-09-27T08:48:41.403Z,5.83
2022-09-27T08:51:15.215Z,6.27
2022-09-27T08:53:49.602Z,6.50
2022-09-27T08:56:21.451Z,6.17
2022-09-27T08:58:54.089Z,6.67
2022-09-27T09:01:27.844Z,6.47
2022-09-27T09:03:59.420Z,6.43
2022-09-27T09:06:30.528Z,7.30
2022-09-27T09:09:12.102Z,6.17
2022-09-27T09:12:13.480Z,6.43
2022-09-27T09:15:16.083Z,6.03
2022-09-27T09:17:58.628Z,6.63
2022-09-27T09:20:42.900Z,6.73
2022-09-27T09:23:34.716Z,6.77
2022-09-27T09:26:09.627Z,6.40
2022-09-27T09:28:54.645Z,5.80
2022-09-27T09:31:32.041Z,6.20
2022-09-27T09:34:06.599Z,6.10
2022-09-27T09:36:40.012Z,6.70
2022-09-27T09:39:16.908Z,6.80
2022-09-27T09:41:55.380Z,6.93
2022-09-27T09:44:29.334Z,6.63
2022-09-27T09:47:00.797Z,6.47
2022-09-27T09:49:33.063Z,5.83
2022-09-27T09:52:09.134Z,6.60
2022-09-27T09:54:41.737Z,6.80
2022-09-27T09:57:15.459Z,7.80
2022-09-27T09:59:52.922Z,6.47
2022-09-27T10:02:29.544Z,6.33
2022-09-27T10:04:57.969Z,6.57
2022-09-27T10:07:27.457Z,6.80
2022-09-27T10:09:58.411Z,6.80
2022-09-27T10:12:26.904Z,6.77
2022-09-27T10:15:01.076Z,6.53
2022-09-27T10:17:37.125Z,6.60
2022-09-27T10:20:07.428Z,6.47
2022-09-27T10:22:39.151Z,7.03
2022-09-27T10:25:09.503Z,6.87
2022-09-27T10:27:42.182Z,7.50
2022-09-27T10:30:27.951Z,7.63
2022-09-27T10:33:00.420Z,7.60
2022-09-27T10:35:37.753Z,7.70
2022-09-27T10:38:22.750Z,7.60
2022-09-27T10:41:45.925Z,8.83
2022-09-27T10:44:25.399Z,8.30
2022-09-27T10:46:56.979Z,8.53
2022-09-27T10:49:29.254Z,8.97
2022-09-27T10:51:59.902Z,8.57
2022-09-27T10:54:30.200Z,7.93
2022-09-27T10:57:01.594Z,7.30
2022-09-27T10:59:32.513Z,7.13
2022-09-27T11:02:02.442Z,7.37
2022-09-27T11:04:33.642Z,7.60
2022-09-27T11:07:16.492Z,8.03
2022-09-27T11:09:52.873Z,7.03
2022-09-27T11:12:22.934Z,6.80
2022-09-27T11:14:56.766Z,6.83
2022-09-27T11:17:40.903Z,7.60
2022-09-27T11:20:24.147Z,7.03
2022-09-27T11:23:18.156Z,6.77
2022-09-27T11:26:00.278Z,7.40
2022-09-27T11:28:37.575Z,8.50
2022-09-27T11:31:19.442Z,8.17
2022-09-27T11:34:09.250Z,7.67
2022-09-27T11:36:54.689Z,7.83
2022-09-27T11:39:34.646Z,8.07
2022-09-27T11:42:23.829Z,7.20
2022-09-27T11:45:45.350Z,8.60
2022-09-27T11:48:19.649Z,8.20
2022-09-27T11:51:02.495Z,8.60
2022-09-27T11:54:00.372Z,7.47
2022-09-27T11:56:39.718Z,7.70
2022-09-27T11:59:39.500Z,7.90
2022-09-27T12:02:24.548Z,8.20
2022-09-27T12:05:03.036Z,8.17
2022-09-27T12:07:41.838Z,7.30
2022-09-27T12:10:14.667Z,7.50
2022-09-27T12:12:47.844Z,8.13
2022-09-27T12:15:18.587Z,7.97
2022-09-27T12:17:50.373Z,7.37
2022-09-27T12:20:22.749Z,7.70
2022-09-27T12:22:59.467Z,8.00
2022-09-27T12:25:32.983Z,7.67
2022-09-27T12:28:10.323Z,7.53
2022-09-27T12:30:42.999Z,8.03
2022-09-27T12:33:19.917Z,8.20
2022-09-27T12:35:53.709Z,8.17
2022-09-27T12:38:29.304Z,7.97
2022-09-27T12:41:00.872Z,8.30
2022-09-27T12:43:32.028Z,7.80
2022-09-27T12:46:13.231Z,9.07
2022-09-27T12:48:49.067Z,9.30
2022-09-27T12:51:19.946Z,8.20
2022-09-27T12:54:06.074Z,8.20
2022-09-27T12:56:48.776Z,7.90
2022-09-27T12:59:46.041Z,7.13
2022-09-27T13:03:16.458Z,7.13
2022-09-27T13:06:14.294Z,7.47
2022-09-27T13:09:17.532Z,7.70
2022-09-27T13:11:54.114Z,7.40
2022-09-27T13:14:26.586Z,7.80
2022-09-27T13:16:55.092Z,6.63
2022-09-27T13:19:43.145Z,7.80
2022-09-27T13:22:37.939Z,7.43
2022-09-27T13:25:55.522Z,8.00
2022-09-27T13:28:36.519Z,8.13
2022-09-27T13:31:06.777Z,7.67
2022-09-27T13:33:47.216Z,8.10
2022-09-27T13:36:33.728Z,8.10
2022-09-27T13:39:20.021Z,7.40
2022-09-27T13:42:18.217Z,7.07
2022-09-27T13:44:56.751Z,8.13
2022-09-27T13:47:33.451Z,7.43
2022-09-27T13:50:15.069Z,7.73
2022-09-27T13:52:46.436Z,8.30
2022-09-27T13:55:41.451Z,7.50
2022-09-27T13:58:34.248Z,8.20
2022-09-27T14:01:07.608Z,8.20
2022-09-27T14:03:40.673Z,7.37
2022-09-27T14:06:14.943Z,7.37
2022-09-27T14:08:47.352Z,8.40
2022-09-27T14:11:20.164Z,8.30
2022-09-27T14:13:50.675Z,6.13
2022-09-27T14:16:22.141Z,7.67
2022-09-27T14:18:53.340Z,6.80
2022-09-27T14:21:29.866Z,6.67
2022-09-27T14:24:21.318Z,7.83
2022-09-27T14:26:49.965Z,7.80
2022-09-27T14:29:21.995Z,8.47
2022-09-27T14:32:05.103Z,7.67
2022-09-27T14:34:33.333Z,8.23
2022-09-27T14:37:18.825Z,8.00
2022-09-27T14:39:48.032Z,7.70
2022-09-27T14:42:22.363Z,6.53
2022-09-27T14:44:52.993Z,7.23
2022-09-27T14:47:22.954Z,6.63
2022-09-27T14:49:52.696Z,7.77
2022-09-27T14:52:24.411Z,7.30
2022-09-27T14:55:00.919Z,7.60
2022-09-27T14:57:32.857Z,7.50
2022-09-27T15:00:05.010Z,7.50
2022-09-27T15:02:34.072Z,7.67
2022-09-27T15:05:02.366Z,8.77
2022-09-27T15:07:32.615Z,7.97
2022-09-27T15:10:00.828Z,7.87
2022-09-27T15:12:30.743Z,7.00
2022-09-27T15:14:59.611Z,7.17
2022-09-27T15:17:29.305Z,7.50
2022-09-27T15:20:00.177Z,7.30
2022-09-27T15:22:42.676Z,7.77
2022-09-27T15:25:23.641Z,7.30
2022-09-27T15:27:54.568Z,7.20
2022-09-27T15:30:29.857Z,7.00
2022-09-27T15:33:00.210Z,7.60
2022-09-27T15:35:33.390Z,6.63
2022-09-27T15:38:25.222Z,6.50
2022-09-27T15:41:04.162Z,7.30
2022-09-27T15:43:35.987Z,6.77
2022-09-27T15:46:06.163Z,7.33
2022-09-27T15:48:37.783Z,8.50
2022-09-27T15:51:42.353Z,7.40
2022-09-27T15:54:10.444Z,7.43
2022-09-27T15:56:38.953Z,7.20
2022-09-27T15:59:08.069Z,7.00
2022-09-27T16:01:36.202Z,6.63
2022-09-27T16:04:10.064Z,8.00
2022-09-27T16:06:39.486Z,8.00
2022-09-27T16:09:10.665Z,7.70
2022-09-27T16:11:38.818Z,7.30
2022-09-27T16:14:06.888Z,7.37
2022-09-27T16:16:35.647Z,7.20
2022-09-27T16:19:05.289Z,8.17
2022-09-27T16:21:33.419Z,8.90
2022-09-27T16:24:06.207Z,14.10
2022-09-27T16:26:35.465Z,11.50
2022-09-27T16:29:03.608Z,9.00
2022-09-27T16:31:31.937Z,8.27
2022-09-27T16:34:00.509Z,8.87
2022-09-27T16:36:30.190Z,8.60
2022-09-27T16:38:58.303Z,9.10
2022-09-27T16:41:26.523Z,8.90
2022-09-27T16:43:54.639Z,10.60
2022-09-27T16:46:23.350Z,9.53
2022-09-27T16:48:51.659Z,9.27
2022-09-27T16:51:39.864Z,10.30
2022-09-27T16:54:09.787Z,9.80
2022-09-27T16:56:38.309Z,9.90
2022-09-27T16:59:07.118Z,11.20
2022-09-27T17:01:35.656Z,10.80
2022-09-27T17:04:04.161Z,9.10
2022-09-27T17:06:33.202Z,9.63
2022-09-27T17:09:03.849Z,10.40
2022-09-27T17:11:34.735Z,10.23
2022-09-27T17:14:03.659Z,9.40
2022-09-27T17:16:31.903Z,8.63
2022-09-27T17:19:00.030Z,7.90
2022-09-27T17:21:28.139Z,7.53
2022-09-27T17:23:56.711Z,7.50
2022-09-27T17:26:26.961Z,7.60
2022-09-27T17:28:57.378Z,7.93
2022-09-27T17:31:26.510Z,7.30
2022-09-27T17:33:57.826Z,6.27
2022-09-27T17:36:28.238Z,6.50
2022-09-27T17:38:56.450Z,6.00
2022-09-27T17:41:26.148Z,6.30
2022-09-27T17:43:57.987Z,6.90
2022-09-27T17:46:27.995Z,6.30
2022-09-27T17:49:13.851Z,7.53
2022-09-27T17:51:42.971Z,7.80
2022-09-27T17:54:12.531Z,6.57
2022-09-27T17:56:42.516Z,7.23
2022-09-27T17:59:13.458Z,6.03
2022-09-27T18:01:41.630Z,6.27
2022-09-27T18:04:11.713Z,7.83
2022-09-27T18:06:41.993Z,6.93
2022-09-27T18:09:12.055Z,7.53
2022-09-27T18:11:41.137Z,6.47
2022-09-27T18:14:10.759Z,6.20
2022-09-27T18:16:44.002Z,6.60
2022-09-27T18:19:14.308Z,5.23
2022-09-27T18:21:42.441Z,5.03
2022-09-27T18:24:11.859Z,4.70
2022-09-27T18:26:40.762Z,6.00
2022-09-27T18:29:12.131Z,5.13
2022-09-27T18:31:47.377Z,5.00
2022-09-27T18:34:16.932Z,4.60
2022-09-27T18:36:45.569Z,5.10
2022-09-27T18:39:17.450Z,4.80
2022-09-27T18:41:46.662Z,5.40
2022-09-27T18:44:15.706Z,5.03
2022-09-27T18:46:45.316Z,5.30
2022-09-27T18:49:15.458Z,4.93
2022-09-27T18:51:47.101Z,5.27
2022-09-27T18:54:17.370Z,4.70
2022-09-27T18:56:45.662Z,5.00
2022-09-27T18:59:14.483Z,4.83
2022-09-27T19:01:46.374Z,5.20
2022-09-27T19:04:19.243Z,5.30
2022-09-27T19:06:49.771Z,5.20
2022-09-27T19:09:18.019Z,5.10
2022-09-27T19:11:46.457Z,4.90
2022-09-27T19:14:17.679Z,4.40
2022-09-27T19:16:48.296Z,4.77
2022-09-27T19:19:17.237Z,4.23
2022-09-27T19:21:45.905Z,5.07
2022-09-27T19:24:15.891Z,4.43
2022-09-27T19:26:44.370Z,4.50
2022-09-27T19:29:13.024Z,4.20
2022-09-27T19:31:42.569Z,3.97
2022-09-27T19:34:12.474Z,4.13
2022-09-27T19:36:40.652Z,4.50
2022-09-27T19:39:09.562Z,3.20
2022-09-27T19:41:37.951Z,3.80
2022-09-27T19:44:06.804Z,3.90
2022-09-27T19:46:35.027Z,3.80
2022-09-27T19:49:03.153Z,3.23
2022-09-27T19:51:33.455Z,4.07
2022-09-27T19:54:01.547Z,3.50
2022-09-27T19:56:29.655Z,4.40
2022-09-27T19:58:57.767Z,3.23
2022-09-27T20:01:27.001Z,2.70
2022-09-27T20:03:56.910Z,2.97
2022-09-27T20:06:25.013Z,2.97
2022-09-27T20:08:55.911Z,3.20
2022-09-27T20:11:26.353Z,3.20
2022-09-27T20:13:54.661Z,3.77
2022-09-27T20:16:24.543Z,3.20
2022-09-27T20:18:54.158Z,3.90
2022-09-27T20:21:25.279Z,4.10
2022-09-27T20:23:56.588Z,4.00
2022-09-27T20:26:26.671Z,3.40
2022-09-27T20:28:57.108Z,3.93
2022-09-27T20:31:27.368Z,4.27
2022-09-27T20:33:56.158Z,3.60
2022-09-27T20:36:25.784Z,3.90
2022-09-27T20:39:01.983Z,3.70
2022-09-27T20:41:32.629Z,4.30
2022-09-27T20:44:03.661Z,4.77
2022-09-27T20:46:32.092Z,4.30
2022-09-27T20:49:02.898Z,4.30
2022-09-27T20:51:33.390Z,4.40
2022-09-27T20:54:03.277Z,3.67
2022-09-27T20:56:33.321Z,3.80
2022-09-27T20:59:03.717Z,3.50
2022-09-27T21:01:32.418Z,3.40
2022-09-27T21:04:02.493Z,3.70
2022-09-27T21:06:31.633Z,3.60
2022-09-27T21:09:00.766Z,3.27
2022-09-27T21:11:30.470Z,2.70
2022-09-27T21:13:58.698Z,3.37
2022-09-27T21:16:28.537Z,2.93
2022-09-27T21:18:58.904Z,2.50
2022-09-27T21:21:27.646Z,2.70
2022-09-27T21:23:58.226Z,2.87
2022-09-27T21:26:28.187Z,2.87
2022-09-27T21:28:59.353Z,2.90
2022-09-27T21:31:29.983Z,2.53
2022-09-27T21:34:00.425Z,2.40
2022-09-27T21:36:30.972Z,2.20
2022-09-27T21:38:59.593Z,2.17
2022-09-27T21:41:28.906Z,2.10
2022-09-27T21:43:58.721Z,2.27
2022-09-27T21:46:29.337Z,1.93
2022-09-27T21:48:59.212Z,2.53
2022-09-27T21:51:29.337Z,2.90
2022-09-27T21:53:59.122Z,2.70
2022-09-27T21:56:28.503Z,3.13
2022-09-27T21:58:56.663Z,3.23
2022-09-27T22:01:29.565Z,3.70
2022-09-27T22:03:58.695Z,3.30
2022-09-27T22:06:28.974Z,3.53
2022-09-27T22:08:59.281Z,3.83
2022-09-27T22:11:30.443Z,5.23
2022-09-27T22:13:58.558Z,10.27
2022-09-27T22:16:30.346Z,18.80
2022-09-27T22:18:59.315Z,17.00
2022-09-27T22:21:29.584Z,9.90
2022-09-27T22:23:58.894Z,5.33
2022-09-27T22:26:29.462Z,3.90
2022-09-27T22:28:58.640Z,3.97
2022-09-27T22:31:29.055Z,3.60
2022-09-27T22:33:59.759Z,3.80
2022-09-27T22:36:29.056Z,4.03
2022-09-27T22:38:57.866Z,3.90
2022-09-27T22:41:26.646Z,3.40
2022-09-27T22:43:54.760Z,3.33
2022-09-27T22:46:23.403Z,2.80
2022-09-27T22:48:53.121Z,3.20
2022-09-27T22:51:21.230Z,3.53
2022-09-27T22:53:49.588Z,3.90
2022-09-27T22:56:19.810Z,4.23
2022-09-27T22:58:49.131Z,4.93
2022-09-27T23:01:20.327Z,4.50
2022-09-27T23:03:49.627Z,5.00
2022-09-27T23:06:20.894Z,4.20
2022-09-27T23:08:49.668Z,3.50
2022-09-27T23:11:19.347Z,3.80
2022-09-27T23:13:49.051Z,3.97
2022-09-27T23:16:20.367Z,3.53
2022-09-27T23:18:48.836Z,3.40
2022-09-27T23:21:18.665Z,2.50
2022-09-27T23:23:47.539Z,2.33
2022-09-27T23:26:17.440Z,2.50
2022-09-27T23:28:45.733Z,2.10
2022-09-27T23:31:15.549Z,1.90
2022-09-27T23:33:45.708Z,1.67
2022-09-27T23:36:15.324Z,1.83
2022-09-27T23:38:45.953Z,1.70
2022-09-27T23:41:14.252Z,1.90
2022-09-27T23:43:42.870Z,2.13
2022-09-27T23:46:11.660Z,1.80
2022-09-27T23:48:40.152Z,1.90
2022-09-27T23:51:10.524Z,1.77
2022-09-27T23:53:39.373Z,2.00
2022-09-27T23:56:11.957Z,2.13
2022-09-27T23:58:41.791Z,1.87
